MMGL/GDL METAR and TAF weather

Enter ICAO airport designator
Station Type Date Time Source
MMGL METAR 2022/08/13 10:48 UTC NOAA

MMGL 131048Z 00000KT 7SM SCT020 BKN300 18/16 A3021 RMK 8/508


Station Type Date Time Source
MMGL Decoded METAR 2022/08/13 10:48 UTC NOAA

Don Miguel / Guadalaj, Mexico (MMGL) 20-31N 103-19W
Aug 13, 2022 - 06:48 AM EDT / 2022.08.13 1048 UTC
Wind: Calm:0
Visibility: 7 mile(s):0
Sky conditions: mostly cloudy
Temperature: 64 F (18 C)
Dew Point: 60 F (16 C)
Relative Humidity: 88%
Pressure (altimeter): 30.21 in. Hg (1023 hPa)
ob: MMGL 131048Z 00000KT 7SM SCT020 BKN300 18/16 A3021 RMK 8/508
cycle: 11

Station Type Date Time Source
MMGL TAF 2022/08/13 12:50 UTC NOAA

TAF MMGL 131042Z 1312/1418 30005KT P6SM SCT020 BKN250 TX27/1321Z TN17/1312Z
TEMPO 1312/1316 4SM TSRA BKN020CB
FM131800 34010KT P6SM BKN030 BKN250
FM140600 34005KT P6SM BKN030 OVC080
TEMPO 1406/1410 5SM TSRA BKN030CB
FM141200 00000KT 5SM HZ SCT030 BKN250
FM141700 28008KT P6SM BKN030 BKN080 BKN250

Example: see airport list